Date,TemperatureHighF,TemperatureAvgF,TemperatureLowF,DewpointHighF,DewpointAvgF,DewpointLowF,HumidityHigh,HumidityAvg,HumidityLow,PressureMaxIn,PressureMinIn,WindSpeedMaxMPH,WindSpeedAvgMPH,GustSpeedMaxMPH,PrecipitationSumIn
2014-3-1,34,22,5,20,8,-3,78,57,30,30.46,30.09,6,0,14,0.00
2014-3-2,39,32,26,25,21,13,74,62,55,30.09,29.97,6,0,6,0.00
2014-3-3,26,19,12,13,2,-6,59,47,33,30.31,30.01,11,2,12,0.00
2014-3-4,28,19,7,7,-1,-6,58,41,27,30.39,30.25,9,0,9,0.00
2014-3-5,25,21,16,18,14,5,83,74,47,30.52,30.25,5,0,8,0.00
2014-3-6,28,18,7,6,-2,-9,67,43,21,30.66,30.52,7,1,8,0.00
2014-3-7,38,24,4,25,13,1,87,65,40,30.52,29.97,7,0,8,0.00
2014-3-8,52,37,21,28,24,18,89,61,36,29.97,29.69,11,1,14,0.00
2014-3-9,38,32,26,18,12,6,60,45,26,29.95,29.87,16,2,17,0.00
2014-3-10,43,34,27,29,22,12,89,64,45,29.89,29.63,7,0,8,0.00
2014-3-11,56,43,31,35,31,28,93,64,37,29.73,29.51,13,1,15,0.00
2014-3-12,45,39,36,38,35,30,96,84,70,29.73,29.05,5,0,8,0.00
2014-3-13,36,20,15,34,12,0,94,72,46,29.94,29.02,22,4,22,0.00
2014-3-14,38,25,9,25,9,-1,69,51,33,30.18,29.91,9,1,12,0.00
2014-3-15,56,43,34,38,30,24,89,63,40,29.91,29.65,16,2,19,0.00
2014-3-16,37,29,21,24,8,-1,63,42,25,30.21,29.87,16,3,20,0.00
2014-3-17,30,21,14,2,-2,-6,45,36,24,30.22,30.06,9,1,11,0.00
2014-3-18,38,26,14,20,8,-2,83,48,28,30.37,30.18,9,1,9,0.00
2014-3-19,43,31,19,30,24,16,91,74,49,30.42,30.00,14,1,14,0.00
2014-3-20,49,40,34,41,32,27,96,77,48,30.03,29.61,13,2,16,0.00
2014-3-21,41,37,30,28,23,21,70,58,47,30.04,29.73,16,2,16,0.00
2014-3-22,54,37,25,38,25,19,81,63,38,30.07,29.65,17,2,22,0.00
2014-3-23,42,34,22,25,16,1,77,50,29,30.09,29.92,14,2,20,0.00
2014-3-24,30,22,14,7,0,-2,53,39,26,30.18,30.05,14,2,16,0.00
2014-3-25,38,27,14,17,10,6,75,50,30,30.16,29.95,12,1,14,0.00
2014-3-26,33,29,22,18,11,0,62,46,32,30.03,29.62,26,5,30,0.00
2014-3-27,44,30,19,14,4,-1,45,33,19,30.33,30.03,13,2,16,0.00
2014-3-28,55,44,34,47,34,14,93,69,42,30.25,29.94,13,1,13,0.00
2014-3-29,51,44,38,47,39,36,97,83,63,30.25,30.01,11,1,12,0.00
2014-3-30,40,38,35,38,37,34,96,95,93,30.01,29.66,13,2,14,0.00
2014-3-31,41,36,34,35,32,29,96,86,70,30.02,29.71,14,2,15,0.00